Dynasty — CFK5241 — position and weather

sailwx.info

Track history (hours):
 
Tides and Currents Weather Stations Pressure Air Temp Water Temp Dewpoint Dewpoint Depression Visibility Wind Speed Wind Dir Waves Ship Positions

Dynasty

Last reported at 2018-Jun-24 21:41 UTC. Time now 2018-Jun-25 11:50 UTC.
Position N 48°39' W 123°20'.

Length 12 m.

Type: Pleasure craft. MMSI: 316027199.

Date/timePositionNaut miles runAvg speedWind from/ knotsBaromVisibWave heightAir tempDewpointWater temp
2018-Jun-24 21:41N 48°39' W 123°20'6 5.5
2018-Jun-24 20:40N 48°44' W 123°21'1 7.4
2018-Jun-24 20:30N 48°44' W 123°22'2 4.9
2018-Jun-24 20:00N 48°44' W 123°26'0 0.9
2018-Jun-24 19:30N 48°43' W 123°27'3 6.1
2018-Jun-24 19:00N 48°43' W 123°31'3 6.7
2018-Jun-24 18:30N 48°45' W 123°35'1 0.0
2018-Jun-23 15:59N 48°46' W 123°36'0 0.0
2018-Jun-23 15:26N 48°46' W 123°36'0 0.0
2018-Jun-23 05:22N 48°46' W 123°36'0 0.0
2018-Jun-23 04:58N 48°46' W 123°36'0 0.0
2018-Jun-23 04:17N 48°46' W 123°36'0 0.0
2018-Jun-23 03:50N 48°46' W 123°36'0 0.0
2018-Jun-23 03:29N 48°46' W 123°36'0 0.0
2018-Jun-23 02:58N 48°46' W 123°36'0 0.0
2018-Jun-23 02:28N 48°46' W 123°36'0 0.0
2018-Jun-23 01:58N 48°46' W 123°36'0 0.0
2018-Jun-23 01:29N 48°46' W 123°36'0 0.0
2018-Jun-23 00:58N 48°46' W 123°36'0 0.0
2018-Jun-23 00:28N 48°46' W 123°36'0 0.0
2018-Jun-22 23:58N 48°46' W 123°36'0 0.0
2018-Jun-22 23:28N 48°46' W 123°36'0 0.0
2018-Jun-22 22:58N 48°46' W 123°36'0 0.0
2018-Jun-22 22:28N 48°46' W 123°36'0 0.0
2018-Jun-22 21:55N 48°46' W 123°36'0 0.0
2018-Jun-22 21:28N 48°46' W 123°36'0 0.1
2018-Jun-22 21:00N 48°46' W 123°36'3 5.9
2018-Jun-22 20:30N 48°44' W 123°32'4 7.1
2018-Jun-22 20:00N 48°42' W 123°27'  
Track history (hours):
 
Tides and Currents Weather Stations Pressure Air Temp Water Temp Dewpoint Dewpoint Depression Visibility Wind Speed Wind Dir Waves Ship Positions

Dynasty

Last reported at 2018-Jun-24 21:41 UTC. Time now 2018-Jun-25 11:50 UTC.
Position N 48°39' W 123°20'.

Length 12 m.

Type: Pleasure craft. MMSI: 316027199.

Date/timePositionNaut miles runAvg speedWind from/ knotsBaromVisibWave heightAir tempDewpointWater temp
2018-Jun-24 21:41N 48°39' W 123°20'6 5.5
2018-Jun-24 20:40N 48°44' W 123°21'1 7.4
2018-Jun-24 20:30N 48°44' W 123°22'2 4.9
2018-Jun-24 20:00N 48°44' W 123°26'0 0.9
2018-Jun-24 19:30N 48°43' W 123°27'3 6.1
2018-Jun-24 19:00N 48°43' W 123°31'3 6.7
2018-Jun-24 18:30N 48°45' W 123°35'1 0.0
2018-Jun-23 15:59N 48°46' W 123°36'0 0.0
2018-Jun-23 15:26N 48°46' W 123°36'0 0.0
2018-Jun-23 05:22N 48°46' W 123°36'0 0.0
2018-Jun-23 04:58N 48°46' W 123°36'0 0.0
2018-Jun-23 04:17N 48°46' W 123°36'0 0.0
2018-Jun-23 03:50N 48°46' W 123°36'0 0.0
2018-Jun-23 03:29N 48°46' W 123°36'0 0.0
2018-Jun-23 02:58N 48°46' W 123°36'0 0.0
2018-Jun-23 02:28N 48°46' W 123°36'0 0.0
2018-Jun-23 01:58N 48°46' W 123°36'0 0.0
2018-Jun-23 01:29N 48°46' W 123°36'0 0.0
2018-Jun-23 00:58N 48°46' W 123°36'0 0.0
2018-Jun-23 00:28N 48°46' W 123°36'0 0.0
2018-Jun-22 23:58N 48°46' W 123°36'0 0.0
2018-Jun-22 23:28N 48°46' W 123°36'0 0.0
2018-Jun-22 22:58N 48°46' W 123°36'0 0.0
2018-Jun-22 22:28N 48°46' W 123°36'0 0.0
2018-Jun-22 21:55N 48°46' W 123°36'0 0.0
2018-Jun-22 21:28N 48°46' W 123°36'0 0.1
2018-Jun-22 21:00N 48°46' W 123°36'3 5.9
2018-Jun-22 20:30N 48°44' W 123°32'4 7.1
2018-Jun-22 20:00N 48°42' W 123°27'  

Dump ship's entire track history